sensor_id;sensor_type;location;lat;lon;timestamp;pressure;altitude;pressure_sealevel;temperature;humidity
21111;BME280;10713;51.912;4.494;2022-12-07T00:00:40;101902.38;;;7.79;100.00
21111;BME280;10713;51.912;4.494;2022-12-07T00:03:05;101898.06;;;7.72;100.00
21111;BME280;10713;51.912;4.494;2022-12-07T00:05:31;101904.34;;;7.58;100.00
21111;BME280;10713;51.912;4.494;2022-12-07T00:07:56;101914.00;;;7.53;100.00
21111;BME280;10713;51.912;4.494;2022-12-07T00:10:21;101910.59;;;7.43;100.00
21111;BME280;10713;51.912;4.494;2022-12-07T00:12:47;101904.44;;;7.46;100.00
21111;BME280;10713;51.912;4.494;2022-12-07T00:15:12;101884.34;;;7.42;100.00
21111;BME280;10713;51.912;4.494;2022-12-07T00:17:37;101874.72;;;7.39;100.00
21111;BME280;10713;51.912;4.494;2022-12-07T00:20:03;101875.41;;;7.61;100.00
21111;BME280;10713;51.912;4.494;2022-12-07T00:22:29;101867.53;;;7.60;100.00
21111;BME280;10713;51.912;4.494;2022-12-07T00:24:54;101872.81;;;7.55;100.00
21111;BME280;10713;51.912;4.494;2022-12-07T00:27:19;101868.47;;;7.51;100.00
21111;BME280;10713;51.912;4.494;2022-12-07T00:29:45;101867.66;;;7.48;100.00
21111;BME280;10713;51.912;4.494;2022-12-07T00:32:10;101868.59;;;7.42;100.00
21111;BME280;10713;51.912;4.494;2022-12-07T00:34:35;101871.25;;;7.37;100.00
21111;BME280;10713;51.912;4.494;2022-12-07T00:37:01;101863.44;;;7.33;100.00
21111;BME280;10713;51.912;4.494;2022-12-07T00:39:26;101867.84;;;7.28;100.00
21111;BME280;10713;51.912;4.494;2022-12-07T00:41:52;101860.91;;;7.17;100.00
21111;BME280;10713;51.912;4.494;2022-12-07T00:44:17;101862.75;;;7.11;100.00
21111;BME280;10713;51.912;4.494;2022-12-07T00:46:42;101861.19;;;6.84;100.00
21111;BME280;10713;51.912;4.494;2022-12-07T00:49:08;101869.13;;;6.77;100.00
21111;BME280;10713;51.912;4.494;2022-12-07T00:51:33;101871.78;;;6.71;100.00
21111;BME280;10713;51.912;4.494;2022-12-07T00:53:58;101866.56;;;6.64;100.00
21111;BME280;10713;51.912;4.494;2022-12-07T00:56:26;101873.69;;;6.43;100.00
21111;BME280;10713;51.912;4.494;2022-12-07T00:58:57;101874.63;;;6.36;100.00
21111;BME280;10713;51.912;4.494;2022-12-07T01:01:24;101881.66;;;6.32;100.00
21111;BME280;10713;51.912;4.494;2022-12-07T01:03:50;101877.31;;;6.25;100.00
21111;BME280;10713;51.912;4.494;2022-12-07T01:06:17;101877.31;;;6.22;100.00
21111;BME280;10713;51.912;4.494;2022-12-07T01:08:43;101881.72;;;6.19;100.00
21111;BME280;10713;51.912;4.494;2022-12-07T01:11:11;101875.59;;;6.17;100.00
21111;BME280;10713;51.912;4.494;2022-12-07T01:13:36;101879.09;;;6.14;100.00
21111;BME280;10713;51.912;4.494;2022-12-07T01:16:04;101877.34;;;6.19;100.00
21111;BME280;10713;51.912;4.494;2022-12-07T01:18:32;101880.84;;;6.21;100.00
21111;BME280;10713;51.912;4.494;2022-12-07T01:21:00;101879.06;;;6.20;100.00
21111;BME280;10713;51.912;4.494;2022-12-07T01:23:25;101872.97;;;6.15;100.00
21111;BME280;10713;51.912;4.494;2022-12-07T01:25:55;101875.56;;;6.23;100.00
21111;BME280;10713;51.912;4.494;2022-12-07T01:28:21;101872.97;;;6.21;100.00
21111;BME280;10713;51.912;4.494;2022-12-07T01:31:01;101870.28;;;6.30;100.00
21111;BME280;10713;51.912;4.494;2022-12-07T01:33:29;101869.38;;;6.36;100.00
21111;BME280;10713;51.912;4.494;2022-12-07T01:36:45;101873.72;;;6.40;100.00
21111;BME280;10713;51.912;4.494;2022-12-07T01:38:47;101861.53;;;6.36;100.00
21111;BME280;10713;51.912;4.494;2022-12-07T01:41:13;101873.75;;;6.37;100.00
21111;BME280;10713;51.912;4.494;2022-12-07T01:44:32;101879.00;;;6.36;100.00
21111;BME280;10713;51.912;4.494;2022-12-07T01:46:59;101863.28;;;6.32;100.00
21111;BME280;10713;51.912;4.494;2022-12-07T01:52:24;101865.09;;;6.24;100.00
21111;BME280;10713;51.912;4.494;2022-12-07T01:54:54;101874.69;;;6.22;100.00
21111;BME280;10713;51.912;4.494;2022-12-07T01:57:22;101868.59;;;6.17;100.00
21111;BME280;10713;51.912;4.494;2022-12-07T01:59:49;101881.72;;;6.14;100.00
21111;BME280;10713;51.912;4.494;2022-12-07T02:02:37;101891.31;;;6.21;100.00
21111;BME280;10713;51.912;4.494;2022-12-07T02:05:05;101896.50;;;6.30;100.00
21111;BME280;10713;51.912;4.494;2022-12-07T02:07:32;101882.47;;;6.39;100.00
21111;BME280;10713;51.912;4.494;2022-12-07T02:10:16;101885.06;;;6.47;100.00
21111;BME280;10713;51.912;4.494;2022-12-07T02:12:43;101879.91;;;6.30;100.00
21111;BME280;10713;51.912;4.494;2022-12-07T02:15:11;101870.16;;;6.52;100.00
21111;BME280;10713;51.912;4.494;2022-12-07T02:17:46;101878.91;;;6.54;100.00
21111;BME280;10713;51.912;4.494;2022-12-07T02:20:27;101863.19;;;6.51;100.00
21111;BME280;10713;51.912;4.494;2022-12-07T02:31:27;101850.22;;;6.20;100.00
21111;BME280;10713;51.912;4.494;2022-12-07T02:34:09;101851.97;;;6.20;100.00
21111;BME280;10713;51.912;4.494;2022-12-07T02:36:43;101848.53;;;6.12;100.00
21111;BME280;10713;51.912;4.494;2022-12-07T02:39:16;101852.03;;;6.09;100.00
21111;BME280;10713;51.912;4.494;2022-12-07T02:41:47;101856.41;;;6.08;100.00
21111;BME280;10713;51.912;4.494;2022-12-07T02:44:15;101852.94;;;6.05;100.00
21111;BME280;10713;51.912;4.494;2022-12-07T02:46:55;101863.41;;;6.13;100.00
21111;BME280;10713;51.912;4.494;2022-12-07T02:49:23;101862.50;;;6.18;100.00
21111;BME280;10713;51.912;4.494;2022-12-07T02:51:50;101854.59;;;6.20;100.00
21111;BME280;10713;51.912;4.494;2022-12-07T02:54:18;101854.63;;;6.21;100.00
21111;BME280;10713;51.912;4.494;2022-12-07T03:16:14;101873.75;;;6.39;100.00
21111;BME280;10713;51.912;4.494;2022-12-07T03:18:58;101869.34;;;6.42;100.00
21111;BME280;10713;51.912;4.494;2022-12-07T03:21:37;101865.81;;;6.51;100.00
21111;BME280;10713;51.912;4.494;2022-12-07T03:24:08;101860.50;;;6.57;100.00
21111;BME280;10713;51.912;4.494;2022-12-07T03:26:37;101854.38;;;6.60;100.00
21111;BME280;10713;51.912;4.494;2022-12-07T03:29:14;101848.22;;;6.64;100.00
21111;BME280;10713;51.912;4.494;2022-12-07T03:31:46;101842.06;;;6.72;100.00
21111;BME280;10713;51.912;4.494;2022-12-07T03:34:26;101838.50;;;6.76;100.00
21111;BME280;10713;51.912;4.494;2022-12-07T03:36:58;101841.94;;;6.83;100.00
21111;BME280;10713;51.912;4.494;2022-12-07T03:41:59;101843.72;;;6.83;100.00
21111;BME280;10713;51.912;4.494;2022-12-07T03:44:27;101841.94;;;6.88;100.00
21111;BME280;10713;51.912;4.494;2022-12-07T03:47:25;101841.94;;;6.86;100.00
21111;BME280;10713;51.912;4.494;2022-12-07T03:50:02;101838.50;;;6.81;100.00
21111;BME280;10713;51.912;4.494;2022-12-07T03:57:50;101841.22;;;6.63;100.00
21111;BME280;10713;51.912;4.494;2022-12-07T04:00:17;101842.09;;;6.63;100.00
21111;BME280;10713;51.912;4.494;2022-12-07T04:02:43;101827.28;;;6.59;100.00
21111;BME280;10713;51.912;4.494;2022-12-07T04:05:09;101827.31;;;6.56;100.00
21111;BME280;10713;51.912;4.494;2022-12-07T04:07:35;101836.06;;;6.53;100.00
21111;BME280;10713;51.912;4.494;2022-12-07T04:10:00;101832.63;;;6.47;100.00
21111;BME280;10713;51.912;4.494;2022-12-07T04:12:25;101829.09;;;6.46;100.00
21111;BME280;10713;51.912;4.494;2022-12-07T04:14:51;101826.50;;;6.40;100.00
21111;BME280;10713;51.912;4.494;2022-12-07T04:17:16;101830.03;;;6.39;100.00
21111;BME280;10713;51.912;4.494;2022-12-07T04:19:41;101823.06;;;6.34;100.00
21111;BME280;10713;51.912;4.494;2022-12-07T04:22:07;101825.72;;;6.30;100.00
21111;BME280;10713;51.912;4.494;2022-12-07T04:24:33;101826.59;;;6.28;100.00
21111;BME280;10713;51.912;4.494;2022-12-07T04:26:59;101828.38;;;6.23;100.00
21111;BME280;10713;51.912;4.494;2022-12-07T04:29:25;101830.91;;;6.35;100.00
21111;BME280;10713;51.912;4.494;2022-12-07T04:31:51;101829.19;;;6.36;100.00
21111;BME280;10713;51.912;4.494;2022-12-07T04:34:17;101833.50;;;6.40;100.00
21111;BME280;10713;51.912;4.494;2022-12-07T04:36:44;101820.41;;;6.41;100.00
21111;BME280;10713;51.912;4.494;2022-12-07T04:39:23;101812.88;;;7.06;100.00
21111;BME280;10713;51.912;4.494;2022-12-07T04:41:48;101806.69;;;7.13;100.00
21111;BME280;10713;51.912;4.494;2022-12-07T04:44:14;101818.81;;;6.16;100.00
21111;BME280;10713;51.912;4.494;2022-12-07T04:46:40;101816.22;;;6.06;100.00
21111;BME280;10713;51.912;4.494;2022-12-07T04:49:06;101821.50;;;6.02;100.00
21111;BME280;10713;51.912;4.494;2022-12-07T04:51:31;101811.03;;;5.97;100.00
21111;BME280;10713;51.912;4.494;2022-12-07T04:53:57;101810.19;;;5.95;100.00
21111;BME280;10713;51.912;4.494;2022-12-07T04:56:24;101799.66;;;5.91;100.00
21111;BME280;10713;51.912;4.494;2022-12-07T04:58:51;101804.94;;;5.87;100.00
21111;BME280;10713;51.912;4.494;2022-12-07T05:01:18;101797.09;;;5.81;100.00
21111;BME280;10713;51.912;4.494;2022-12-07T05:03:43;101798.84;;;5.78;100.00
21111;BME280;10713;51.912;4.494;2022-12-07T05:06:10;101792.72;;;5.77;100.00
21111;BME280;10713;51.912;4.494;2022-12-07T05:08:36;101791.00;;;5.81;100.00
21111;BME280;10713;51.912;4.494;2022-12-07T05:11:04;101793.63;;;5.76;100.00
21111;BME280;10713;51.912;4.494;2022-12-07T05:13:31;101794.50;;;5.75;100.00
21111;BME280;10713;51.912;4.494;2022-12-07T05:15:57;101797.13;;;5.74;100.00
21111;BME280;10713;51.912;4.494;2022-12-07T05:18:22;101788.41;;;5.73;100.00
21111;BME280;10713;51.912;4.494;2022-12-07T05:20:48;101791.88;;;5.75;100.00
21111;BME280;10713;51.912;4.494;2022-12-07T05:23:13;101798.88;;;5.76;100.00
21111;BME280;10713;51.912;4.494;2022-12-07T05:25:38;101793.63;;;5.76;100.00
21111;BME280;10713;51.912;4.494;2022-12-07T05:28:04;101803.22;;;5.82;100.00
21111;BME280;10713;51.912;4.494;2022-12-07T05:30:30;101803.16;;;5.86;100.00
21111;BME280;10713;51.912;4.494;2022-12-07T05:32:55;101802.31;;;5.87;100.00
21111;BME280;10713;51.912;4.494;2022-12-07T05:35:21;101804.91;;;5.91;100.00
21111;BME280;10713;51.912;4.494;2022-12-07T05:37:47;101804.91;;;5.86;100.00
21111;BME280;10713;51.912;4.494;2022-12-07T05:40:13;101808.44;;;5.85;100.00
21111;BME280;10713;51.912;4.494;2022-12-07T05:42:40;101801.44;;;5.85;100.00
21111;BME280;10713;51.912;4.494;2022-12-07T05:45:06;101803.16;;;5.86;100.00
21111;BME280;10713;51.912;4.494;2022-12-07T05:47:32;101799.69;;;5.84;100.00
21111;BME280;10713;51.912;4.494;2022-12-07T05:49:57;101801.44;;;5.85;100.00
21111;BME280;10713;51.912;4.494;2022-12-07T05:52:22;101803.19;;;5.85;100.00
21111;BME280;10713;51.912;4.494;2022-12-07T05:54:48;101790.09;;;5.80;100.00
21111;BME280;10713;51.912;4.494;2022-12-07T05:57:13;101797.13;;;5.78;100.00
21111;BME280;10713;51.912;4.494;2022-12-07T05:59:39;101790.13;;;5.76;100.00
21111;BME280;10713;51.912;4.494;2022-12-07T06:02:08;101791.00;;;5.79;100.00
21111;BME280;10713;51.912;4.494;2022-12-07T06:04:36;101789.25;;;5.78;100.00
21111;BME280;10713;51.912;4.494;2022-12-07T06:07:02;101791.00;;;5.76;100.00
21111;BME280;10713;51.912;4.494;2022-12-07T06:09:28;101794.47;;;5.80;100.00
21111;BME280;10713;51.912;4.494;2022-12-07T06:11:55;101792.72;;;5.82;100.00
21111;BME280;10713;51.912;4.494;2022-12-07T06:14:40;101784.84;;;5.80;100.00
21111;BME280;10713;51.912;4.494;2022-12-07T06:17:05;101788.34;;;5.78;100.00
21111;BME280;10713;51.912;4.494;2022-12-07T06:19:31;101789.28;;;5.75;100.00
21111;BME280;10713;51.912;4.494;2022-12-07T06:21:57;101788.38;;;5.76;100.00
21111;BME280;10713;51.912;4.494;2022-12-07T06:24:22;101792.78;;;5.73;100.00
21111;BME280;10713;51.912;4.494;2022-12-07T06:26:48;101790.16;;;5.68;100.00
21111;BME280;10713;51.912;4.494;2022-12-07T06:29:14;101798.88;;;5.72;100.00
21111;BME280;10713;51.912;4.494;2022-12-07T06:31:40;101807.59;;;5.69;100.00
21111;BME280;10713;51.912;4.494;2022-12-07T06:34:09;101798.03;;;5.65;100.00
21111;BME280;10713;51.912;4.494;2022-12-07T06:36:34;101806.81;;;5.50;100.00
21111;BME280;10713;51.912;4.494;2022-12-07T06:39:00;101805.03;;;5.61;100.00
21111;BME280;10713;51.912;4.494;2022-12-07T06:41:26;101798.91;;;5.64;100.00
21111;BME280;10713;51.912;4.494;2022-12-07T06:43:51;101803.22;;;5.79;100.00
21111;BME280;10713;51.912;4.494;2022-12-07T06:46:17;101799.72;;;5.81;100.00
21111;BME280;10713;51.912;4.494;2022-12-07T06:48:43;101791.84;;;5.80;100.00
21111;BME280;10713;51.912;4.494;2022-12-07T06:51:08;101788.38;;;5.76;100.00
21111;BME280;10713;51.912;4.494;2022-12-07T06:53:35;101797.09;;;5.77;100.00
21111;BME280;10713;51.912;4.494;2022-12-07T06:56:00;101795.38;;;5.73;100.00
21111;BME280;10713;51.912;4.494;2022-12-07T06:58:26;101798.03;;;5.57;100.00
21111;BME280;10713;51.912;4.494;2022-12-07T07:00:51;101798.03;;;5.57;100.00
21111;BME280;10713;51.912;4.494;2022-12-07T07:03:17;101797.16;;;5.60;100.00
21111;BME280;10713;51.912;4.494;2022-12-07T07:05:43;101801.53;;;5.59;100.00
21111;BME280;10713;51.912;4.494;2022-12-07T07:08:09;101815.50;;;5.57;100.00
21111;BME280;10713;51.912;4.494;2022-12-07T07:10:35;101812.91;;;5.58;100.00
21111;BME280;10713;51.912;4.494;2022-12-07T07:13:00;101811.94;;;5.75;100.00
21111;BME280;10713;51.912;4.494;2022-12-07T07:15:26;101806.69;;;5.82;100.00
21111;BME280;10713;51.912;4.494;2022-12-07T07:17:51;101802.34;;;5.78;100.00
21111;BME280;10713;51.912;4.494;2022-12-07T07:20:16;101811.00;;;6.05;100.00
21111;BME280;10713;51.912;4.494;2022-12-07T07:22:42;101813.59;;;6.08;100.00
21111;BME280;10713;51.912;4.494;2022-12-07T07:25:07;101809.19;;;6.12;100.00
21111;BME280;10713;51.912;4.494;2022-12-07T07:27:33;101810.06;;;6.12;100.00
21111;BME280;10713;51.912;4.494;2022-12-07T07:29:58;101810.97;;;6.11;100.00
21111;BME280;10713;51.912;4.494;2022-12-07T07:32:24;101804.81;;;6.12;100.00
21111;BME280;10713;51.912;4.494;2022-12-07T07:34:49;101803.13;;;6.09;100.00
21111;BME280;10713;51.912;4.494;2022-12-07T07:37:15;101805.72;;;6.06;100.00
21111;BME280;10713;51.912;4.494;2022-12-07T07:39:40;101804.88;;;6.04;100.00
21111;BME280;10713;51.912;4.494;2022-12-07T07:42:05;101807.53;;;6.01;100.00
21111;BME280;10713;51.912;4.494;2022-12-07T07:44:33;101816.25;;;6.02;100.00
21111;BME280;10713;51.912;4.494;2022-12-07T07:46:58;101811.00;;;6.02;100.00
21111;BME280;10713;51.912;4.494;2022-12-07T07:49:23;101805.72;;;6.06;100.00
21111;BME280;10713;51.912;4.494;2022-12-07T07:51:49;101808.34;;;6.13;100.00
21111;BME280;10713;51.912;4.494;2022-12-07T07:54:14;101811.78;;;6.24;100.00
21111;BME280;10713;51.912;4.494;2022-12-07T07:56:39;101806.44;;;6.36;100.00
21111;BME280;10713;51.912;4.494;2022-12-07T07:59:05;101803.75;;;6.45;100.00
21111;BME280;10713;51.912;4.494;2022-12-07T08:01:30;101807.19;;;6.57;100.00
21111;BME280;10713;51.912;4.494;2022-12-07T08:03:55;101812.34;;;6.67;100.00
21111;BME280;10713;51.912;4.494;2022-12-07T08:06:21;101811.00;;;7.22;100.00
21111;BME280;10713;51.912;4.494;2022-12-07T08:08:46;101810.97;;;7.23;100.00
21111;BME280;10713;51.912;4.494;2022-12-07T08:11:11;101813.50;;;7.36;100.00
21111;BME280;10713;51.912;4.494;2022-12-07T08:13:37;101802.66;;;7.63;100.00
21111;BME280;10713;51.912;4.494;2022-12-07T08:16:08;101800.47;;;7.98;100.00
21111;BME280;10713;51.912;4.494;2022-12-07T08:18:35;101790.41;;;8.29;100.00
21111;BME280;10713;51.912;4.494;2022-12-07T08:21:02;101795.84;;;8.75;100.00
21111;BME280;10713;51.912;4.494;2022-12-07T08:23:28;101799.59;;;9.60;100.00
21111;BME280;10713;51.912;4.494;2022-12-07T08:25:53;101793.72;;;10.29;100.00
21111;BME280;10713;51.912;4.494;2022-12-07T08:28:18;101779.91;;;11.25;100.00
21111;BME280;10713;51.912;4.494;2022-12-07T08:30:44;101770.69;;;12.29;100.00
21111;BME280;10713;51.912;4.494;2022-12-07T08:33:10;101767.31;;;12.79;100.00
21111;BME280;10713;51.912;4.494;2022-12-07T08:35:36;101761.13;;;13.55;100.00
21111;BME280;10713;51.912;4.494;2022-12-07T08:38:02;101769.50;;;13.91;100.00
21111;BME280;10713;51.912;4.494;2022-12-07T08:40:28;101753.16;;;14.24;100.00
21111;BME280;10713;51.912;4.494;2022-12-07T08:42:53;101755.09;;;14.85;100.00
21111;BME280;10713;51.912;4.494;2022-12-07T08:45:20;101746.47;;;14.80;100.00
21111;BME280;10713;51.912;4.494;2022-12-07T08:48:10;101751.09;;;14.75;100.00
21111;BME280;10713;51.912;4.494;2022-12-07T08:50:36;101754.34;;;14.17;100.00
21111;BME280;10713;51.912;4.494;2022-12-07T08:53:02;101756.50;;;13.84;100.00
21111;BME280;10713;51.912;4.494;2022-12-07T08:55:30;101764.94;;;13.48;100.00
21111;BME280;10713;51.912;4.494;2022-12-07T08:57:57;101768.34;;;13.75;100.00
21111;BME280;10713;51.912;4.494;2022-12-07T09:00:24;101757.44;;;14.05;100.00
21111;BME280;10713;51.912;4.494;2022-12-07T09:02:50;101763.41;;;15.18;100.00
21111;BME280;10713;51.912;4.494;2022-12-07T09:05:16;101748.56;;;16.10;100.00
21111;BME280;10713;51.912;4.494;2022-12-07T09:07:43;101752.13;;;17.17;100.00
21111;BME280;10713;51.912;4.494;2022-12-07T09:10:11;101743.06;;;18.03;100.00
21111;BME280;10713;51.912;4.494;2022-12-07T09:12:36;101738.78;;;18.46;100.00
21111;BME280;10713;51.912;4.494;2022-12-07T09:15:02;101741.41;;;18.62;100.00
21111;BME280;10713;51.912;4.494;2022-12-07T09:17:32;101742.56;;;18.42;100.00
21111;BME280;10713;51.912;4.494;2022-12-07T09:19:58;101740.75;;;17.30;100.00
21111;BME280;10713;51.912;4.494;2022-12-07T09:22:23;101748.41;;;16.32;100.00
21111;BME280;10713;51.912;4.494;2022-12-07T09:24:48;101751.13;;;15.55;100.00
21111;BME280;10713;51.912;4.494;2022-12-07T09:27:14;101744.59;;;14.82;100.00
21111;BME280;10713;51.912;4.494;2022-12-07T09:29:39;101748.66;;;14.26;100.00
21111;BME280;10713;51.912;4.494;2022-12-07T09:32:05;101758.75;;;13.47;100.00
21111;BME280;10713;51.912;4.494;2022-12-07T09:34:31;101771.84;;;12.75;100.00
21111;BME280;10713;51.912;4.494;2022-12-07T09:36:57;101774.72;;;12.13;100.00
21111;BME280;10713;51.912;4.494;2022-12-07T09:39:23;101762.81;;;11.37;100.00
21111;BME280;10713;51.912;4.494;2022-12-07T09:41:48;101770.22;;;10.92;100.00
21111;BME280;10713;51.912;4.494;2022-12-07T09:44:20;101762.91;;;10.67;100.00
21111;BME280;10713;51.912;4.494;2022-12-07T09:46:47;101766.69;;;10.57;100.00
21111;BME280;10713;51.912;4.494;2022-12-07T09:49:24;101766.94;;;10.48;100.00
21111;BME280;10713;51.912;4.494;2022-12-07T09:54:30;101755.72;;;10.74;100.00
21111;BME280;10713;51.912;4.494;2022-12-07T09:56:59;101762.91;;;11.65;100.00
21111;BME280;10713;51.912;4.494;2022-12-07T09:59:25;101752.69;;;13.44;100.00
21111;BME280;10713;51.912;4.494;2022-12-07T10:01:50;101750.53;;;14.45;100.00
21111;BME280;10713;51.912;4.494;2022-12-07T10:04:19;101746.66;;;15.37;100.00
21111;BME280;10713;51.912;4.494;2022-12-07T10:06:46;101740.97;;;16.03;100.00
21111;BME280;10713;51.912;4.494;2022-12-07T10:09:15;101736.03;;;16.12;100.00
21111;BME280;10713;51.912;4.494;2022-12-07T10:12:04;101734.69;;;15.26;100.00
21111;BME280;10713;51.912;4.494;2022-12-07T10:14:31;101736.47;;;14.64;100.00
21111;BME280;10713;51.912;4.494;2022-12-07T10:16:57;101742.66;;;14.21;100.00
21111;BME280;10713;51.912;4.494;2022-12-07T10:22:15;101737.88;;;13.85;100.00
21111;BME280;10713;51.912;4.494;2022-12-07T10:24:42;101736.28;;;13.58;100.00
21111;BME280;10713;51.912;4.494;2022-12-07T10:27:31;101740.25;;;13.46;100.00
21111;BME280;10713;51.912;4.494;2022-12-07T10:29:57;101739.53;;;13.41;100.00
21111;BME280;10713;51.912;4.494;2022-12-07T10:32:34;101731.28;;;13.25;100.00
21111;BME280;10713;51.912;4.494;2022-12-07T10:35:21;101736.94;;;13.14;100.00
21111;BME280;10713;51.912;4.494;2022-12-07T10:37:48;101727.44;;;13.34;100.00
21111;BME280;10713;51.912;4.494;2022-12-07T10:40:34;101725.31;;;13.43;100.00
21111;BME280;10713;51.912;4.494;2022-12-07T10:59:13;101715.53;;;11.87;100.00
21111;BME280;10713;51.912;4.494;2022-12-07T11:04:24;101716.25;;;11.63;100.00
21111;BME280;10713;51.912;4.494;2022-12-07T11:07:17;101704.09;;;11.57;100.00
21111;BME280;10713;51.912;4.494;2022-12-07T11:09:47;101703.91;;;11.63;100.00
21111;BME280;10713;51.912;4.494;2022-12-07T11:15:22;101687.81;;;11.71;100.00
21111;BME280;10713;51.912;4.494;2022-12-07T11:26:34;101667.69;;;11.65;100.00
21111;BME280;10713;51.912;4.494;2022-12-07T11:32:10;101663.41;;;11.91;100.00
21111;BME280;10713;51.912;4.494;2022-12-07T11:34:49;101656.97;;;12.00;100.00
21111;BME280;10713;51.912;4.494;2022-12-07T11:37:21;101664.47;;;12.13;100.00
21111;BME280;10713;51.912;4.494;2022-12-07T11:40:00;101646.94;;;12.09;100.00
21111;BME280;10713;51.912;4.494;2022-12-07T11:42:35;101658.47;;;12.07;100.00
21111;BME280;10713;51.912;4.494;2022-12-07T11:45:22;101651.47;;;12.06;100.00
21111;BME280;10713;51.912;4.494;2022-12-07T11:47:55;101655.63;;;11.86;100.00
21111;BME280;10713;51.912;4.494;2022-12-07T11:50:43;101652.91;;;11.58;100.00
21111;BME280;10713;51.912;4.494;2022-12-07T11:53:16;101667.22;;;11.21;100.00
21111;BME280;10713;51.912;4.494;2022-12-07T11:55:49;101673.28;;;10.61;100.00
21111;BME280;10713;51.912;4.494;2022-12-07T12:01:13;101703.22;;;9.46;100.00
21111;BME280;10713;51.912;4.494;2022-12-07T12:03:51;101695.91;;;9.17;100.00
21111;BME280;10713;51.912;4.494;2022-12-07T12:06:19;101695.25;;;9.06;100.00
21111;BME280;10713;51.912;4.494;2022-12-07T12:08:50;101693.78;;;8.90;100.00
21111;BME280;10713;51.912;4.494;2022-12-07T12:16:52;101679.03;;;8.81;100.00
21111;BME280;10713;51.912;4.494;2022-12-07T12:22:17;101676.13;;;8.96;100.00
21111;BME280;10713;51.912;4.494;2022-12-07T12:24:46;101671.41;;;9.14;100.00
21111;BME280;10713;51.912;4.494;2022-12-07T12:27:35;101665.03;;;9.24;100.00
21111;BME280;10713;51.912;4.494;2022-12-07T12:30:05;101666.72;;;9.27;100.00
21111;BME280;10713;51.912;4.494;2022-12-07T12:32:42;101663.22;;;9.26;100.00
21111;BME280;10713;51.912;4.494;2022-12-07T12:35:31;101661.38;;;9.31;100.00
21111;BME280;10713;51.912;4.494;2022-12-07T12:38:24;101661.91;;;9.47;100.00
21111;BME280;10713;51.912;4.494;2022-12-07T12:40:52;101656.53;;;9.53;100.00
21111;BME280;10713;51.912;4.494;2022-12-07T12:43:40;101643.28;;;9.55;100.00
21111;BME280;10713;51.912;4.494;2022-12-07T12:51:57;101637.47;;;9.79;100.00
21111;BME280;10713;51.912;4.494;2022-12-07T12:54:31;101630.38;;;9.81;100.00
21111;BME280;10713;51.912;4.494;2022-12-07T13:02:24;101618.69;;;9.93;100.00
21111;BME280;10713;51.912;4.494;2022-12-07T13:10:38;101599.66;;;9.80;100.00
21111;BME280;10713;51.912;4.494;2022-12-07T13:21:39;101598.47;;;9.92;100.00
21111;BME280;10713;51.912;4.494;2022-12-07T13:31:34;101606.31;;;9.58;100.00
21111;BME280;10713;51.912;4.494;2022-12-07T13:34:01;101596.75;;;9.54;100.00
21111;BME280;10713;51.912;4.494;2022-12-07T13:36:31;101586.28;;;9.51;100.00
21111;BME280;10713;51.912;4.494;2022-12-07T13:39:15;101583.81;;;9.44;100.00
21111;BME280;10713;51.912;4.494;2022-12-07T13:41:42;101582.03;;;9.43;100.00
21111;BME280;10713;51.912;4.494;2022-12-07T13:44:13;101574.34;;;9.36;100.00
21111;BME280;10713;51.912;4.494;2022-12-07T13:49:23;101566.63;;;9.27;100.00
21111;BME280;10713;51.912;4.494;2022-12-07T13:51:49;101568.50;;;9.21;100.00
21111;BME280;10713;51.912;4.494;2022-12-07T13:54:15;101553.00;;;9.08;100.00
21111;BME280;10713;51.912;4.494;2022-12-07T13:56:41;101553.81;;;9.10;100.00
21111;BME280;10713;51.912;4.494;2022-12-07T13:59:21;101552.06;;;9.10;100.00
21111;BME280;10713;51.912;4.494;2022-12-07T14:01:48;101545.91;;;9.10;100.00
21111;BME280;10713;51.912;4.494;2022-12-07T14:04:32;101548.59;;;9.07;100.00
21111;BME280;10713;51.912;4.494;2022-12-07T14:06:59;101545.13;;;9.06;100.00
21111;BME280;10713;51.912;4.494;2022-12-07T14:09:27;101545.03;;;9.09;100.00
21111;BME280;10713;51.912;4.494;2022-12-07T14:11:55;101542.31;;;9.14;100.00
21111;BME280;10713;51.912;4.494;2022-12-07T14:14:24;101544.09;;;9.13;100.00
21111;BME280;10713;51.912;4.494;2022-12-07T14:17:17;101546.81;;;9.09;100.00
21111;BME280;10713;51.912;4.494;2022-12-07T14:19:55;101541.59;;;9.07;100.00
21111;BME280;10713;51.912;4.494;2022-12-07T14:22:25;101546.03;;;9.03;100.00
21111;BME280;10713;51.912;4.494;2022-12-07T14:25:19;101551.28;;;9.05;100.00
21111;BME280;10713;51.912;4.494;2022-12-07T14:30:22;101541.97;;;8.90;100.00
21111;BME280;10713;51.912;4.494;2022-12-07T14:32:53;101544.59;;;8.90;100.00
21111;BME280;10713;51.912;4.494;2022-12-07T14:35:19;101544.75;;;8.81;100.00
21111;BME280;10713;51.912;4.494;2022-12-07T14:37:46;101548.34;;;8.78;100.00
21111;BME280;10713;51.912;4.494;2022-12-07T14:40:23;101542.38;;;8.70;100.00
21111;BME280;10713;51.912;4.494;2022-12-07T14:42:52;101539.81;;;8.66;100.00
21111;BME280;10713;51.912;4.494;2022-12-07T14:45:21;101532.97;;;8.59;100.00
21111;BME280;10713;51.912;4.494;2022-12-07T14:47:47;101532.13;;;8.55;100.00
21111;BME280;10713;51.912;4.494;2022-12-07T14:50:15;101530.44;;;8.52;100.00
21111;BME280;10713;51.912;4.494;2022-12-07T14:52:43;101529.50;;;8.56;100.00
21111;BME280;10713;51.912;4.494;2022-12-07T14:55:20;101525.16;;;8.54;100.00
21111;BME280;10713;51.912;4.494;2022-12-07T14:57:47;101526.13;;;8.48;100.00
21111;BME280;10713;51.912;4.494;2022-12-07T15:00:14;101525.28;;;8.46;100.00
21111;BME280;10713;51.912;4.494;2022-12-07T15:02:40;101521.06;;;8.39;100.00
21111;BME280;10713;51.912;4.494;2022-12-07T15:05:06;101526.41;;;8.33;100.00